sensor_id;sensor_type;location;lat;lon;timestamp;temperature;humidity
46492;DHT22;32206;51.446;6.792;2023-07-29T00:02:24;19.50;99.90
46492;DHT22;32206;51.446;6.792;2023-07-29T00:04:50;19.50;99.90
46492;DHT22;32206;51.446;6.792;2023-07-29T00:07:15;19.50;99.90
46492;DHT22;32206;51.446;6.792;2023-07-29T00:09:41;19.40;99.90
46492;DHT22;32206;51.446;6.792;2023-07-29T00:12:07;19.50;99.90
46492;DHT22;32206;51.446;6.792;2023-07-29T00:14:33;19.40;99.90
46492;DHT22;32206;51.446;6.792;2023-07-29T00:16:58;19.40;99.90
46492;DHT22;32206;51.446;6.792;2023-07-29T00:19:24;19.40;99.90
46492;DHT22;32206;51.446;6.792;2023-07-29T00:21:50;19.40;99.90
46492;DHT22;32206;51.446;6.792;2023-07-29T00:24:15;19.40;99.90
46492;DHT22;32206;51.446;6.792;2023-07-29T00:26:41;19.40;99.90
46492;DHT22;32206;51.446;6.792;2023-07-29T00:29:06;19.40;99.90
46492;DHT22;32206;51.446;6.792;2023-07-29T00:31:32;19.40;99.90
46492;DHT22;32206;51.446;6.792;2023-07-29T00:33:57;19.40;99.90
46492;DHT22;32206;51.446;6.792;2023-07-29T00:36:23;19.40;99.90
46492;DHT22;32206;51.446;6.792;2023-07-29T00:38:49;19.40;99.90
46492;DHT22;32206;51.446;6.792;2023-07-29T00:41:15;19.40;99.90
46492;DHT22;32206;51.446;6.792;2023-07-29T00:43:41;19.30;99.90
46492;DHT22;32206;51.446;6.792;2023-07-29T00:46:08;19.30;99.90
46492;DHT22;32206;51.446;6.792;2023-07-29T00:48:35;19.30;99.90
46492;DHT22;32206;51.446;6.792;2023-07-29T00:54:23;19.30;99.90
46492;DHT22;32206;51.446;6.792;2023-07-29T00:56:49;19.30;99.90
46492;DHT22;32206;51.446;6.792;2023-07-29T00:59:15;19.30;99.90
46492;DHT22;32206;51.446;6.792;2023-07-29T01:01:40;19.30;99.90
46492;DHT22;32206;51.446;6.792;2023-07-29T01:04:06;19.30;99.90
46492;DHT22;32206;51.446;6.792;2023-07-29T01:07:14;19.30;99.90
46492;DHT22;32206;51.446;6.792;2023-07-29T01:10:00;19.30;99.90
46492;DHT22;32206;51.446;6.792;2023-07-29T01:15:16;19.40;99.90
46492;DHT22;32206;51.446;6.792;2023-07-29T01:17:48;19.40;99.90
46492;DHT22;32206;51.446;6.792;2023-07-29T01:20:16;19.40;99.90
46492;DHT22;32206;51.446;6.792;2023-07-29T01:26:05;19.40;99.90
46492;DHT22;32206;51.446;6.792;2023-07-29T01:28:31;19.40;99.90
46492;DHT22;32206;51.446;6.792;2023-07-29T01:31:12;19.40;99.90
46492;DHT22;32206;51.446;6.792;2023-07-29T01:33:59;19.40;99.90
46492;DHT22;32206;51.446;6.792;2023-07-29T01:36:28;19.40;99.90
46492;DHT22;32206;51.446;6.792;2023-07-29T01:38:56;19.40;99.90
46492;DHT22;32206;51.446;6.792;2023-07-29T01:41:23;19.50;99.90
46492;DHT22;32206;51.446;6.792;2023-07-29T01:43:50;19.40;99.90
46492;DHT22;32206;51.446;6.792;2023-07-29T01:46:16;19.40;99.90
46492;DHT22;32206;51.446;6.792;2023-07-29T01:48:42;19.40;99.90
46492;DHT22;32206;51.446;6.792;2023-07-29T01:51:11;19.40;99.90
46492;DHT22;32206;51.446;6.792;2023-07-29T01:53:37;19.40;99.90
46492;DHT22;32206;51.446;6.792;2023-07-29T01:56:02;19.60;99.90
46492;DHT22;32206;51.446;6.792;2023-07-29T01:58:28;19.40;99.90
46492;DHT22;32206;51.446;6.792;2023-07-29T02:01:31;19.50;99.90
46492;DHT22;32206;51.446;6.792;2023-07-29T02:03:56;19.50;99.90
46492;DHT22;32206;51.446;6.792;2023-07-29T02:06:22;19.50;99.90
46492;DHT22;32206;51.446;6.792;2023-07-29T02:08:48;19.50;99.90
46492;DHT22;32206;51.446;6.792;2023-07-29T02:11:14;19.50;99.90
46492;DHT22;32206;51.446;6.792;2023-07-29T02:13:39;19.50;99.90
46492;DHT22;32206;51.446;6.792;2023-07-29T02:16:05;19.40;99.90
46492;DHT22;32206;51.446;6.792;2023-07-29T02:18:30;19.50;99.90
46492;DHT22;32206;51.446;6.792;2023-07-29T02:20:56;19.50;99.90
46492;DHT22;32206;51.446;6.792;2023-07-29T02:23:22;19.50;99.90
46492;DHT22;32206;51.446;6.792;2023-07-29T02:25:48;19.40;99.90
46492;DHT22;32206;51.446;6.792;2023-07-29T02:28:13;19.40;99.90
46492;DHT22;32206;51.446;6.792;2023-07-29T02:30:41;19.50;99.90
46492;DHT22;32206;51.446;6.792;2023-07-29T02:33:09;19.50;99.90
46492;DHT22;32206;51.446;6.792;2023-07-29T02:35:34;19.50;99.90
46492;DHT22;32206;51.446;6.792;2023-07-29T02:38:00;19.50;99.90
46492;DHT22;32206;51.446;6.792;2023-07-29T02:40:26;19.50;99.90
46492;DHT22;32206;51.446;6.792;2023-07-29T02:42:52;19.50;99.90
46492;DHT22;32206;51.446;6.792;2023-07-29T02:45:18;19.40;99.90
46492;DHT22;32206;51.446;6.792;2023-07-29T02:47:43;19.40;99.90
46492;DHT22;32206;51.446;6.792;2023-07-29T02:50:09;19.40;99.90
46492;DHT22;32206;51.446;6.792;2023-07-29T02:52:35;19.50;99.90
46492;DHT22;32206;51.446;6.792;2023-07-29T02:55:00;19.40;99.90
46492;DHT22;32206;51.446;6.792;2023-07-29T02:57:26;19.50;99.90
46492;DHT22;32206;51.446;6.792;2023-07-29T02:59:52;19.50;99.90
46492;DHT22;32206;51.446;6.792;2023-07-29T03:02:17;19.50;99.90
46492;DHT22;32206;51.446;6.792;2023-07-29T03:04:43;19.50;99.90
46492;DHT22;32206;51.446;6.792;2023-07-29T03:10:31;19.50;99.90
46492;DHT22;32206;51.446;6.792;2023-07-29T03:12:56;19.50;99.90
46492;DHT22;32206;51.446;6.792;2023-07-29T03:15:25;19.50;99.90
46492;DHT22;32206;51.446;6.792;2023-07-29T03:17:54;19.50;99.90
46492;DHT22;32206;51.446;6.792;2023-07-29T03:20:20;19.50;99.90
46492;DHT22;32206;51.446;6.792;2023-07-29T03:22:46;19.50;99.90
46492;DHT22;32206;51.446;6.792;2023-07-29T03:25:12;19.50;99.90
46492;DHT22;32206;51.446;6.792;2023-07-29T03:27:37;19.50;99.90
46492;DHT22;32206;51.446;6.792;2023-07-29T03:30:05;19.50;99.90
46492;DHT22;32206;51.446;6.792;2023-07-29T03:32:31;19.50;99.90
46492;DHT22;32206;51.446;6.792;2023-07-29T03:34:57;19.50;99.90
46492;DHT22;32206;51.446;6.792;2023-07-29T03:37:22;19.50;99.90
46492;DHT22;32206;51.446;6.792;2023-07-29T03:39:48;19.50;99.90
46492;DHT22;32206;51.446;6.792;2023-07-29T03:42:13;19.50;99.90
46492;DHT22;32206;51.446;6.792;2023-07-29T03:44:39;19.50;99.90
46492;DHT22;32206;51.446;6.792;2023-07-29T03:47:05;19.50;99.90
46492;DHT22;32206;51.446;6.792;2023-07-29T03:49:31;19.50;99.90
46492;DHT22;32206;51.446;6.792;2023-07-29T03:51:57;19.30;99.90
46492;DHT22;32206;51.446;6.792;2023-07-29T03:54:23;19.50;99.90
46492;DHT22;32206;51.446;6.792;2023-07-29T03:56:48;19.40;99.90
46492;DHT22;32206;51.446;6.792;2023-07-29T03:59:15;19.40;99.90
46492;DHT22;32206;51.446;6.792;2023-07-29T04:01:40;19.30;99.90
46492;DHT22;32206;51.446;6.792;2023-07-29T04:04:06;19.40;99.90
46492;DHT22;32206;51.446;6.792;2023-07-29T04:06:32;19.40;99.90
46492;DHT22;32206;51.446;6.792;2023-07-29T04:08:57;19.40;99.90
46492;DHT22;32206;51.446;6.792;2023-07-29T04:11:23;19.40;99.90
46492;DHT22;32206;51.446;6.792;2023-07-29T04:13:49;19.30;99.90
46492;DHT22;32206;51.446;6.792;2023-07-29T04:16:15;19.40;99.90
46492;DHT22;32206;51.446;6.792;2023-07-29T04:18:42;19.40;99.90
46492;DHT22;32206;51.446;6.792;2023-07-29T04:21:07;19.30;99.90
46492;DHT22;32206;51.446;6.792;2023-07-29T04:23:33;19.30;99.90
46492;DHT22;32206;51.446;6.792;2023-07-29T04:25:59;19.30;99.90
46492;DHT22;32206;51.446;6.792;2023-07-29T04:28:24;19.30;99.90
46492;DHT22;32206;51.446;6.792;2023-07-29T04:30:50;19.30;99.90
46492;DHT22;32206;51.446;6.792;2023-07-29T04:33:15;19.20;99.90
46492;DHT22;32206;51.446;6.792;2023-07-29T04:35:41;19.30;99.90
46492;DHT22;32206;51.446;6.792;2023-07-29T04:38:07;19.30;99.90
46492;DHT22;32206;51.446;6.792;2023-07-29T04:40:33;19.30;99.90
46492;DHT22;32206;51.446;6.792;2023-07-29T04:43:00;19.20;99.90
46492;DHT22;32206;51.446;6.792;2023-07-29T04:45:30;19.30;99.90
46492;DHT22;32206;51.446;6.792;2023-07-29T04:47:56;19.20;99.90
46492;DHT22;32206;51.446;6.792;2023-07-29T04:50:22;19.20;99.90
46492;DHT22;32206;51.446;6.792;2023-07-29T04:52:47;19.10;99.90
46492;DHT22;32206;51.446;6.792;2023-07-29T04:55:13;19.10;99.90
46492;DHT22;32206;51.446;6.792;2023-07-29T04:57:39;19.00;99.90
46492;DHT22;32206;51.446;6.792;2023-07-29T05:00:05;19.10;99.90
46492;DHT22;32206;51.446;6.792;2023-07-29T05:02:31;19.10;99.90
46492;DHT22;32206;51.446;6.792;2023-07-29T05:04:56;19.20;99.90
46492;DHT22;32206;51.446;6.792;2023-07-29T05:07:22;19.20;99.90
46492;DHT22;32206;51.446;6.792;2023-07-29T05:09:48;19.20;99.90
46492;DHT22;32206;51.446;6.792;2023-07-29T05:12:13;19.20;99.90
46492;DHT22;32206;51.446;6.792;2023-07-29T05:14:39;19.20;99.90
46492;DHT22;32206;51.446;6.792;2023-07-29T05:17:05;19.20;99.90
46492;DHT22;32206;51.446;6.792;2023-07-29T05:19:31;19.10;99.90
46492;DHT22;32206;51.446;6.792;2023-07-29T05:21:57;19.10;99.90
46492;DHT22;32206;51.446;6.792;2023-07-29T05:24:23;19.00;99.90
46492;DHT22;32206;51.446;6.792;2023-07-29T05:26:49;19.00;99.90
46492;DHT22;32206;51.446;6.792;2023-07-29T05:29:15;19.00;99.90
46492;DHT22;32206;51.446;6.792;2023-07-29T05:31:41;19.10;99.90
46492;DHT22;32206;51.446;6.792;2023-07-29T05:34:06;19.10;99.90
46492;DHT22;32206;51.446;6.792;2023-07-29T05:36:32;19.10;99.90
46492;DHT22;32206;51.446;6.792;2023-07-29T05:38:58;19.00;99.90
46492;DHT22;32206;51.446;6.792;2023-07-29T05:41:24;19.00;99.90
46492;DHT22;32206;51.446;6.792;2023-07-29T05:43:53;19.00;99.90
46492;DHT22;32206;51.446;6.792;2023-07-29T05:46:18;19.00;99.90
46492;DHT22;32206;51.446;6.792;2023-07-29T05:48:44;19.00;99.90
46492;DHT22;32206;51.446;6.792;2023-07-29T05:51:09;19.00;99.90
46492;DHT22;32206;51.446;6.792;2023-07-29T05:53:36;19.00;99.90
46492;DHT22;32206;51.446;6.792;2023-07-29T05:56:02;19.00;99.90
46492;DHT22;32206;51.446;6.792;2023-07-29T05:58:28;18.90;99.90
46492;DHT22;32206;51.446;6.792;2023-07-29T06:00:53;19.00;99.90
46492;DHT22;32206;51.446;6.792;2023-07-29T06:13:39;18.80;99.90
46492;DHT22;32206;51.446;6.792;2023-07-29T06:16:05;18.80;99.90
46492;DHT22;32206;51.446;6.792;2023-07-29T06:18:31;18.70;99.90
46492;DHT22;32206;51.446;6.792;2023-07-29T06:20:56;18.90;99.90
46492;DHT22;32206;51.446;6.792;2023-07-29T06:23:22;18.80;99.90
46492;DHT22;32206;51.446;6.792;2023-07-29T06:25:48;18.80;99.90
46492;DHT22;32206;51.446;6.792;2023-07-29T06:28:13;18.80;99.90
46492;DHT22;32206;51.446;6.792;2023-07-29T06:30:39;19.00;99.90
46492;DHT22;32206;51.446;6.792;2023-07-29T06:33:05;18.90;99.90
46492;DHT22;32206;51.446;6.792;2023-07-29T06:35:30;18.90;99.90
46492;DHT22;32206;51.446;6.792;2023-07-29T06:37:56;19.00;99.90
46492;DHT22;32206;51.446;6.792;2023-07-29T06:40:21;19.00;99.90
46492;DHT22;32206;51.446;6.792;2023-07-29T06:42:47;19.00;99.90
46492;DHT22;32206;51.446;6.792;2023-07-29T06:45:13;19.00;99.90
46492;DHT22;32206;51.446;6.792;2023-07-29T06:47:40;19.10;99.90
46492;DHT22;32206;51.446;6.792;2023-07-29T06:50:06;19.20;99.90
46492;DHT22;32206;51.446;6.792;2023-07-29T06:52:32;19.20;99.90
46492;DHT22;32206;51.446;6.792;2023-07-29T06:54:58;19.30;99.90
46492;DHT22;32206;51.446;6.792;2023-07-29T06:57:24;19.30;99.90
46492;DHT22;32206;51.446;6.792;2023-07-29T06:59:49;19.30;99.90
46492;DHT22;32206;51.446;6.792;2023-07-29T07:02:15;19.30;99.90
46492;DHT22;32206;51.446;6.792;2023-07-29T07:04:41;19.30;99.90
46492;DHT22;32206;51.446;6.792;2023-07-29T07:07:06;19.30;99.90
46492;DHT22;32206;51.446;6.792;2023-07-29T07:09:32;19.40;99.90
46492;DHT22;32206;51.446;6.792;2023-07-29T07:11:58;19.50;99.90
46492;DHT22;32206;51.446;6.792;2023-07-29T07:14:23;19.70;99.90
46492;DHT22;32206;51.446;6.792;2023-07-29T07:16:49;19.80;99.90
46492;DHT22;32206;51.446;6.792;2023-07-29T07:19:15;19.90;99.90
46492;DHT22;32206;51.446;6.792;2023-07-29T07:21:40;19.90;99.90
46492;DHT22;32206;51.446;6.792;2023-07-29T07:24:06;19.90;99.90
46492;DHT22;32206;51.446;6.792;2023-07-29T07:26:32;19.80;99.90
46492;DHT22;32206;51.446;6.792;2023-07-29T07:28:58;19.70;99.90
46492;DHT22;32206;51.446;6.792;2023-07-29T07:31:23;19.60;99.90
46492;DHT22;32206;51.446;6.792;2023-07-29T07:33:49;19.60;99.90
46492;DHT22;32206;51.446;6.792;2023-07-29T07:36:15;19.70;99.90
46492;DHT22;32206;51.446;6.792;2023-07-29T07:38:41;19.80;99.90
46492;DHT22;32206;51.446;6.792;2023-07-29T07:41:07;19.80;99.90
46492;DHT22;32206;51.446;6.792;2023-07-29T07:43:32;19.80;23.20
46492;DHT22;32206;51.446;6.792;2023-07-29T07:45:59;19.90;16.80
46492;DHT22;32206;51.446;6.792;2023-07-29T07:48:26;19.90;1.00
46492;DHT22;32206;51.446;6.792;2023-07-29T07:50:51;20.00;2.10
46492;DHT22;32206;51.446;6.792;2023-07-29T07:53:17;19.90;1.00
46492;DHT22;32206;51.446;6.792;2023-07-29T07:55:43;20.00;1.00
46492;DHT22;32206;51.446;6.792;2023-07-29T07:58:08;20.10;1.00
46492;DHT22;32206;51.446;6.792;2023-07-29T08:00:34;20.20;1.00
46492;DHT22;32206;51.446;6.792;2023-07-29T08:03:00;20.20;1.00
46492;DHT22;32206;51.446;6.792;2023-07-29T08:05:25;20.20;1.00
46492;DHT22;32206;51.446;6.792;2023-07-29T08:07:51;20.10;1.00
46492;DHT22;32206;51.446;6.792;2023-07-29T08:10:17;20.10;1.00
46492;DHT22;32206;51.446;6.792;2023-07-29T08:12:42;20.20;1.00
46492;DHT22;32206;51.446;6.792;2023-07-29T08:15:08;20.30;1.00
46492;DHT22;32206;51.446;6.792;2023-07-29T08:17:34;20.30;1.00
46492;DHT22;32206;51.446;6.792;2023-07-29T08:19:59;20.50;1.00
46492;DHT22;32206;51.446;6.792;2023-07-29T08:22:25;20.70;1.00
46492;DHT22;32206;51.446;6.792;2023-07-29T08:24:51;20.80;1.00
46492;DHT22;32206;51.446;6.792;2023-07-29T08:27:16;20.90;1.00
46492;DHT22;32206;51.446;6.792;2023-07-29T08:29:42;20.90;1.00
46492;DHT22;32206;51.446;6.792;2023-07-29T08:32:08;20.90;1.00
46492;DHT22;32206;51.446;6.792;2023-07-29T08:34:34;20.90;1.00
46492;DHT22;32206;51.446;6.792;2023-07-29T08:37:00;21.00;1.00
46492;DHT22;32206;51.446;6.792;2023-07-29T08:39:25;21.10;1.00
46492;DHT22;32206;51.446;6.792;2023-07-29T08:45:17;21.20;99.90
46492;DHT22;32206;51.446;6.792;2023-07-29T08:47:43;21.10;1.00
46492;DHT22;32206;51.446;6.792;2023-07-29T08:50:09;21.20;99.90
46492;DHT22;32206;51.446;6.792;2023-07-29T08:52:35;21.30;1.00
46492;DHT22;32206;51.446;6.792;2023-07-29T08:55:01;21.30;1.00
46492;DHT22;32206;51.446;6.792;2023-07-29T08:57:27;21.40;99.90
46492;DHT22;32206;51.446;6.792;2023-07-29T08:59:54;21.40;1.00
46492;DHT22;32206;51.446;6.792;2023-07-29T09:02:20;21.40;1.00
46492;DHT22;32206;51.446;6.792;2023-07-29T09:04:46;21.50;99.90
46492;DHT22;32206;51.446;6.792;2023-07-29T09:07:12;21.50;99.90
46492;DHT22;32206;51.446;6.792;2023-07-29T09:09:38;21.50;26.70
46492;DHT22;32206;51.446;6.792;2023-07-29T09:12:04;21.40;99.90
46492;DHT22;32206;51.446;6.792;2023-07-29T09:14:30;21.40;99.90
46492;DHT22;32206;51.446;6.792;2023-07-29T09:16:55;21.30;1.00
46492;DHT22;32206;51.446;6.792;2023-07-29T09:19:25;21.40;99.90
46492;DHT22;32206;51.446;6.792;2023-07-29T09:21:51;21.30;1.00
46492;DHT22;32206;51.446;6.792;2023-07-29T09:24:17;21.30;23.00
46492;DHT22;32206;51.446;6.792;2023-07-29T09:26:49;21.20;85.50
46492;DHT22;32206;51.446;6.792;2023-07-29T09:29:16;21.10;56.90
46492;DHT22;32206;51.446;6.792;2023-07-29T09:31:46;21.10;99.90
46492;DHT22;32206;51.446;6.792;2023-07-29T09:34:15;21.00;99.90
46492;DHT22;32206;51.446;6.792;2023-07-29T09:36:41;21.00;1.00
46492;DHT22;32206;51.446;6.792;2023-07-29T09:39:11;21.00;1.00
46492;DHT22;32206;51.446;6.792;2023-07-29T09:41:37;21.00;1.00
46492;DHT22;32206;51.446;6.792;2023-07-29T09:44:04;20.90;1.00
46492;DHT22;32206;51.446;6.792;2023-07-29T09:46:33;21.00;99.90
46492;DHT22;32206;51.446;6.792;2023-07-29T09:49:01;21.00;1.00
46492;DHT22;32206;51.446;6.792;2023-07-29T09:51:27;21.20;1.00
46492;DHT22;32206;51.446;6.792;2023-07-29T09:53:52;21.20;99.90
46492;DHT22;32206;51.446;6.792;2023-07-29T09:56:26;21.30;99.90
46492;DHT22;32206;51.446;6.792;2023-07-29T09:58:56;21.50;99.90
46492;DHT22;32206;51.446;6.792;2023-07-29T10:01:23;21.70;99.90
46492;DHT22;32206;51.446;6.792;2023-07-29T10:03:49;21.80;99.90
46492;DHT22;32206;51.446;6.792;2023-07-29T10:06:15;22.10;1.00
46492;DHT22;32206;51.446;6.792;2023-07-29T10:08:43;22.30;99.90
46492;DHT22;32206;51.446;6.792;2023-07-29T10:11:10;22.50;99.90
46492;DHT22;32206;51.446;6.792;2023-07-29T10:13:37;22.60;99.90
46492;DHT22;32206;51.446;6.792;2023-07-29T10:16:03;22.40;1.00
46492;DHT22;32206;51.446;6.792;2023-07-29T10:18:31;22.40;1.00
46492;DHT22;32206;51.446;6.792;2023-07-29T10:20:58;22.30;99.90
46492;DHT22;32206;51.446;6.792;2023-07-29T10:23:26;22.30;1.00
46492;DHT22;32206;51.446;6.792;2023-07-29T10:26:02;22.50;99.90
46492;DHT22;32206;51.446;6.792;2023-07-29T10:28:30;22.70;1.00
46492;DHT22;32206;51.446;6.792;2023-07-29T10:30:57;22.70;1.00
46492;DHT22;32206;51.446;6.792;2023-07-29T10:33:23;22.70;1.00
46492;DHT22;32206;51.446;6.792;2023-07-29T10:35:49;22.80;99.90
46492;DHT22;32206;51.446;6.792;2023-07-29T10:38:16;23.00;1.00
46492;DHT22;32206;51.446;6.792;2023-07-29T10:40:47;23.10;1.00
46492;DHT22;32206;51.446;6.792;2023-07-29T10:43:18;23.10;1.00
46492;DHT22;32206;51.446;6.792;2023-07-29T10:45:44;23.10;1.00
46492;DHT22;32206;51.446;6.792;2023-07-29T10:48:39;23.00;1.00
46492;DHT22;32206;51.446;6.792;2023-07-29T10:51:36;22.90;99.90
46492;DHT22;32206;51.446;6.792;2023-07-29T10:54:10;22.90;1.00
46492;DHT22;32206;51.446;6.792;2023-07-29T10:56:40;23.00;99.90
46492;DHT22;32206;51.446;6.792;2023-07-29T11:01:43;23.20;74.60
46492;DHT22;32206;51.446;6.792;2023-07-29T11:11:07;23.00;56.70
46492;DHT22;32206;51.446;6.792;2023-07-29T11:13:37;22.90;1.00
46492;DHT22;32206;51.446;6.792;2023-07-29T11:16:04;22.90;99.90
46492;DHT22;32206;51.446;6.792;2023-07-29T11:18:34;22.90;99.90
46492;DHT22;32206;51.446;6.792;2023-07-29T11:21:02;22.80;46.00
46492;DHT22;32206;51.446;6.792;2023-07-29T11:23:30;22.70;99.90
46492;DHT22;32206;51.446;6.792;2023-07-29T11:25:56;22.70;99.90
46492;DHT22;32206;51.446;6.792;2023-07-29T11:28:22;22.70;99.90
46492;DHT22;32206;51.446;6.792;2023-07-29T11:30:49;22.70;1.00
46492;DHT22;32206;51.446;6.792;2023-07-29T11:33:19;22.80;1.00
46492;DHT22;32206;51.446;6.792;2023-07-29T11:35:45;22.80;99.90
46492;DHT22;32206;51.446;6.792;2023-07-29T11:38:15;23.10;1.00
46492;DHT22;32206;51.446;6.792;2023-07-29T11:40:41;23.20;1.00
46492;DHT22;32206;51.446;6.792;2023-07-29T11:43:06;23.40;66.60
46492;DHT22;32206;51.446;6.792;2023-07-29T11:45:33;23.60;99.90
46492;DHT22;32206;51.446;6.792;2023-07-29T11:48:00;23.60;99.90
46492;DHT22;32206;51.446;6.792;2023-07-29T11:50:26;23.40;39.60
46492;DHT22;32206;51.446;6.792;2023-07-29T11:52:52;23.40;99.90
46492;DHT22;32206;51.446;6.792;2023-07-29T11:55:18;23.40;99.90
46492;DHT22;32206;51.446;6.792;2023-07-29T11:57:50;23.60;99.90
46492;DHT22;32206;51.446;6.792;2023-07-29T12:00:17;23.70;99.90
46492;DHT22;32206;51.446;6.792;2023-07-29T12:02:45;23.60;28.50
46492;DHT22;32206;51.446;6.792;2023-07-29T12:05:13;23.50;1.00
46492;DHT22;32206;51.446;6.792;2023-07-29T12:07:39;23.70;1.00
46492;DHT22;32206;51.446;6.792;2023-07-29T12:10:07;23.60;1.00
46492;DHT22;32206;51.446;6.792;2023-07-29T12:16:02;23.60;1.00
46492;DHT22;32206;51.446;6.792;2023-07-29T12:18:32;23.90;1.00
46492;DHT22;32206;51.446;6.792;2023-07-29T12:20:57;24.00;1.00
46492;DHT22;32206;51.446;6.792;2023-07-29T12:23:26;24.10;1.00
46492;DHT22;32206;51.446;6.792;2023-07-29T12:29:16;24.20;99.90
46492;DHT22;32206;51.446;6.792;2023-07-29T12:31:42;24.30;99.90
46492;DHT22;32206;51.446;6.792;2023-07-29T12:34:08;24.30;99.90
46492;DHT22;32206;51.446;6.792;2023-07-29T12:36:48;24.30;99.90
46492;DHT22;32206;51.446;6.792;2023-07-29T12:39:23;24.20;99.90
46492;DHT22;32206;51.446;6.792;2023-07-29T12:41:50;24.20;99.90
46492;DHT22;32206;51.446;6.792;2023-07-29T12:44:16;24.20;99.90
46492;DHT22;32206;51.446;6.792;2023-07-29T12:46:42;24.30;99.90
46492;DHT22;32206;51.446;6.792;2023-07-29T12:49:08;24.20;1.00
46492;DHT22;32206;51.446;6.792;2023-07-29T12:51:40;24.10;1.00
46492;DHT22;32206;51.446;6.792;2023-07-29T12:54:33;24.40;1.00
46492;DHT22;32206;51.446;6.792;2023-07-29T12:57:02;24.50;1.00
46492;DHT22;32206;51.446;6.792;2023-07-29T12:59:30;24.60;99.90
46492;DHT22;32206;51.446;6.792;2023-07-29T13:05:55;24.60;99.90
46492;DHT22;32206;51.446;6.792;2023-07-29T13:08:21;24.60;99.90
46492;DHT22;32206;51.446;6.792;2023-07-29T13:10:48;24.40;99.90
46492;DHT22;32206;51.446;6.792;2023-07-29T13:13:14;24.30;99.90
46492;DHT22;32206;51.446;6.792;2023-07-29T13:15:39;24.20;99.90
46492;DHT22;32206;51.446;6.792;2023-07-29T13:18:05;24.10;99.90
46492;DHT22;32206;51.446;6.792;2023-07-29T13:20:31;24.00;1.00
46492;DHT22;32206;51.446;6.792;2023-07-29T13:22:59;23.80;1.00
46492;DHT22;32206;51.446;6.792;2023-07-29T13:25:24;24.00;1.00
46492;DHT22;32206;51.446;6.792;2023-07-29T13:27:50;23.80;1.00
46492;DHT22;32206;51.446;6.792;2023-07-29T13:30:16;23.60;1.00
46492;DHT22;32206;51.446;6.792;2023-07-29T13:32:42;23.60;1.00
46492;DHT22;32206;51.446;6.792;2023-07-29T13:35:08;23.40;1.00
46492;DHT22;32206;51.446;6.792;2023-07-29T13:37:33;23.50;1.00
46492;DHT22;32206;51.446;6.792;2023-07-29T13:40:02;23.50;1.00
46492;DHT22;32206;51.446;6.792;2023-07-29T13:42:28;23.50;1.00
46492;DHT22;32206;51.446;6.792;2023-07-29T13:44:54;23.30;99.90
46492;DHT22;32206;51.446;6.792;2023-07-29T13:47:20;23.10;99.90
46492;DHT22;32206;51.446;6.792;2023-07-29T13:49:45;23.00;19.70
46492;DHT22;32206;51.446;6.792;2023-07-29T13:52:11;22.80;1.00
46492;DHT22;32206;51.446;6.792;2023-07-29T13:54:37;22.70;99.90
46492;DHT22;32206;51.446;6.792;2023-07-29T13:57:04;22.50;99.90
46492;DHT22;32206;51.446;6.792;2023-07-29T13:59:32;22.30;1.00
46492;DHT22;32206;51.446;6.792;2023-07-29T14:01:58;22.20;1.00
46492;DHT22;32206;51.446;6.792;2023-07-29T14:04:23;22.10;7.20
46492;DHT22;32206;51.446;6.792;2023-07-29T14:06:49;22.00;37.10
46492;DHT22;32206;51.446;6.792;2023-07-29T14:09:15;22.00;57.90
46492;DHT22;32206;51.446;6.792;2023-07-29T14:11:40;21.80;85.00
46492;DHT22;32206;51.446;6.792;2023-07-29T14:14:07;21.80;99.90
46492;DHT22;32206;51.446;6.792;2023-07-29T14:16:33;21.60;99.10
46492;DHT22;32206;51.446;6.792;2023-07-29T14:18:58;21.60;99.90
46492;DHT22;32206;51.446;6.792;2023-07-29T14:21:24;21.80;99.90
46492;DHT22;32206;51.446;6.792;2023-07-29T14:23:50;22.00;99.90
46492;DHT22;32206;51.446;6.792;2023-07-29T14:26:15;22.20;99.90
46492;DHT22;32206;51.446;6.792;2023-07-29T14:28:41;22.40;99.90
46492;DHT22;32206;51.446;6.792;2023-07-29T14:31:07;22.50;95.00
46492;DHT22;32206;51.446;6.792;2023-07-29T14:33:33;22.70;94.90
46492;DHT22;32206;51.446;6.792;2023-07-29T14:36:04;22.80;60.50
46492;DHT22;32206;51.446;6.792;2023-07-29T14:38:30;22.90;70.20
46492;DHT22;32206;51.446;6.792;2023-07-29T14:40:55;23.00;65.90
46492;DHT22;32206;51.446;6.792;2023-07-29T14:43:22;22.80;1.00
46492;DHT22;32206;51.446;6.792;2023-07-29T14:45:49;22.60;19.60
46492;DHT22;32206;51.446;6.792;2023-07-29T14:48:14;22.50;69.80
46492;DHT22;32206;51.446;6.792;2023-07-29T14:50:40;22.40;87.80
46492;DHT22;32206;51.446;6.792;2023-07-29T14:56:28;22.10;94.10
46492;DHT22;32206;51.446;6.792;2023-07-29T14:58:54;22.00;99.90
46492;DHT22;32206;51.446;6.792;2023-07-29T15:01:20;21.80;99.90
46492;DHT22;32206;51.446;6.792;2023-07-29T15:03:45;21.50;99.90
46492;DHT22;32206;51.446;6.792;2023-07-29T15:06:11;21.40;99.90
46492;DHT22;32206;51.446;6.792;2023-07-29T15:08:36;21.30;99.90
46492;DHT22;32206;51.446;6.792;2023-07-29T15:11:02;21.20;99.90
46492;DHT22;32206;51.446;6.792;2023-07-29T15:13:28;21.30;99.90
46492;DHT22;32206;51.446;6.792;2023-07-29T15:15:53;21.30;99.90
46492;DHT22;32206;51.446;6.792;2023-07-29T15:18:21;21.30;99.90
46492;DHT22;32206;51.446;6.792;2023-07-29T15:20:47;21.30;99.90
46492;DHT22;32206;51.446;6.792;2023-07-29T15:23:13;21.20;99.90
46492;DHT22;32206;51.446;6.792;2023-07-29T15:25:38;21.20;99.90
46492;DHT22;32206;51.446;6.792;2023-07-29T15:28:04;21.30;99.90
46492;DHT22;32206;51.446;6.792;2023-07-29T15:30:30;21.30;99.90
46492;DHT22;32206;51.446;6.792;2023-07-29T15:32:56;21.40;99.90
46492;DHT22;32206;51.446;6.792;2023-07-29T15:35:22;21.50;99.90
46492;DHT22;32206;51.446;6.792;2023-07-29T15:37:48;21.60;99.90
46492;DHT22;32206;51.446;6.792;2023-07-29T15:40:14;21.70;99.90
46492;DHT22;32206;51.446;6.792;2023-07-29T15:42:39;21.80;99.90
46492;DHT22;32206;51.446;6.792;2023-07-29T15:45:05;22.00;99.90
46492;DHT22;32206;51.446;6.792;2023-07-29T15:47:31;22.20;99.90
46492;DHT22;32206;51.446;6.792;2023-07-29T15:49:57;22.30;99.90
46492;DHT22;32206;51.446;6.792;2023-07-29T15:52:23;22.20;99.90
46492;DHT22;32206;51.446;6.792;2023-07-29T15:54:49;22.10;99.90
46492;DHT22;32206;51.446;6.792;2023-07-29T15:57:16;22.20;99.90
46492;DHT22;32206;51.446;6.792;2023-07-29T15:59:42;22.30;92.40
46492;DHT22;32206;51.446;6.792;2023-07-29T16:02:08;22.30;77.00
46492;DHT22;32206;51.446;6.792;2023-07-29T16:04:34;22.30;6.80
46492;DHT22;32206;51.446;6.792;2023-07-29T16:06:59;22.30;1.00
46492;DHT22;32206;51.446;6.792;2023-07-29T16:09:25;22.40;1.00
46492;DHT22;32206;51.446;6.792;2023-07-29T16:11:53;22.50;1.00
46492;DHT22;32206;51.446;6.792;2023-07-29T16:14:19;22.30;1.00
46492;DHT22;32206;51.446;6.792;2023-07-29T16:16:45;22.30;1.00
46492;DHT22;32206;51.446;6.792;2023-07-29T16:19:10;22.30;1.00
46492;DHT22;32206;51.446;6.792;2023-07-29T16:21:36;22.20;1.00
46492;DHT22;32206;51.446;6.792;2023-07-29T16:24:02;22.20;1.00